createdAt,value
2023-01-17T00:01:41.833Z,6.42
2023-01-17T00:04:27.111Z,6.32
2023-01-17T00:07:12.353Z,6.24
2023-01-17T00:09:54.212Z,6.31
2023-01-17T00:12:21.708Z,6.35
2023-01-17T00:14:48.775Z,6.05
2023-01-17T00:17:15.422Z,6.18
2023-01-17T00:20:00.910Z,6.03
2023-01-17T00:22:47.915Z,5.94
2023-01-17T00:25:38.288Z,6.11
2023-01-17T00:28:05.846Z,5.75
2023-01-17T00:30:33.063Z,5.89
2023-01-17T00:32:59.798Z,6.09
2023-01-17T00:35:28.013Z,5.71
2023-01-17T00:38:22.448Z,5.98
2023-01-17T00:40:49.967Z,6.16
2023-01-17T00:43:37.381Z,6.02
2023-01-17T00:46:23.175Z,6.04
2023-01-17T00:49:08.537Z,6.10
2023-01-17T00:51:54.301Z,6.02
2023-01-17T00:54:39.704Z,6.05
2023-01-17T00:57:26.001Z,5.90
2023-01-17T01:00:11.329Z,6.00
2023-01-17T01:02:57.171Z,6.05
2023-01-17T01:05:42.296Z,6.02
2023-01-17T01:08:45.063Z,5.88
2023-01-17T01:11:36.573Z,5.86
2023-01-17T01:14:23.022Z,6.06
2023-01-17T01:17:08.765Z,5.71
2023-01-17T01:19:53.954Z,5.90
2023-01-17T01:22:39.198Z,5.86
2023-01-17T01:25:24.589Z,5.76
2023-01-17T01:28:21.394Z,5.64
2023-01-17T01:31:06.791Z,5.46
2023-01-17T01:33:36.728Z,5.75
2023-01-17T01:36:03.416Z,5.81
2023-01-17T01:38:29.998Z,5.92
2023-01-17T01:40:56.985Z,5.62
2023-01-17T01:43:45.803Z,5.74
2023-01-17T01:46:16.419Z,5.86
2023-01-17T01:48:55.572Z,5.91
2023-01-17T01:51:29.774Z,5.77
2023-01-17T01:54:08.273Z,5.90
2023-01-17T01:56:38.348Z,6.02
2023-01-17T01:59:07.993Z,6.04
2023-01-17T02:01:35.523Z,6.03
2023-01-17T02:04:02.985Z,5.88
2023-01-17T02:06:34.200Z,5.95
2023-01-17T02:09:05.283Z,5.92
2023-01-17T02:11:32.480Z,5.81
2023-01-17T02:13:59.261Z,5.45
2023-01-17T02:17:02.902Z,5.49
2023-01-17T02:19:57.934Z,5.66
2023-01-17T02:22:42.879Z,5.67
2023-01-17T02:25:24.636Z,5.62
2023-01-17T02:28:08.244Z,5.60
2023-01-17T02:30:39.974Z,5.56
2023-01-17T02:33:17.253Z,5.73
2023-01-17T02:36:14.921Z,5.72
2023-01-17T02:38:52.711Z,5.78
2023-01-17T02:41:31.373Z,5.85
2023-01-17T02:43:58.151Z,6.03
2023-01-17T02:46:24.887Z,6.05
2023-01-17T02:48:51.855Z,5.97
2023-01-17T02:51:50.297Z,6.08
2023-01-17T02:54:35.228Z,6.09
2023-01-17T02:57:17.163Z,6.21
2023-01-17T02:59:54.101Z,6.37
2023-01-17T03:02:26.896Z,6.15
2023-01-17T03:05:01.863Z,6.17
2023-01-17T03:07:29.724Z,6.27
2023-01-17T03:10:00.832Z,6.28
2023-01-17T03:12:32.462Z,6.39
2023-01-17T03:14:59.309Z,6.38
2023-01-17T03:17:30.493Z,6.39
2023-01-17T03:19:57.254Z,6.42
2023-01-17T03:22:24.135Z,6.43
2023-01-17T03:24:50.974Z,6.33
2023-01-17T03:27:17.683Z,6.53
2023-01-17T03:29:44.277Z,6.38
2023-01-17T03:32:10.882Z,6.48
2023-01-17T03:34:37.528Z,6.22
2023-01-17T03:37:04.162Z,6.48
2023-01-17T03:39:31.152Z,6.57
2023-01-17T03:42:00.953Z,6.56
2023-01-17T03:44:27.570Z,6.35
2023-01-17T03:46:54.292Z,6.43
2023-01-17T03:49:24.005Z,6.32
2023-01-17T03:51:50.752Z,6.44
2023-01-17T03:54:17.521Z,6.34
2023-01-17T03:56:44.200Z,6.37
2023-01-17T03:59:13.036Z,6.37
2023-01-17T04:01:40.040Z,6.45
2023-01-17T04:04:06.730Z,6.45
2023-01-17T04:06:33.339Z,6.54
2023-01-17T04:09:00.516Z,6.48
2023-01-17T04:11:27.267Z,6.49
2023-01-17T04:13:55.328Z,6.42
2023-01-17T04:16:27.994Z,6.30
2023-01-17T04:18:54.887Z,6.43
2023-01-17T04:21:21.584Z,6.42
2023-01-17T04:23:48.251Z,6.47
2023-01-17T04:26:14.868Z,6.54
2023-01-17T04:28:41.548Z,6.62
2023-01-17T04:31:12.413Z,6.66
2023-01-17T04:33:39.061Z,6.68
2023-01-17T04:36:06.856Z,6.55
2023-01-17T04:38:33.478Z,6.72
2023-01-17T04:41:00.139Z,6.63
2023-01-17T04:43:26.775Z,6.64
2023-01-17T04:45:57.483Z,6.77
2023-01-17T04:48:24.628Z,6.79
2023-01-17T04:50:51.358Z,6.79
2023-01-17T04:53:18.088Z,6.83
2023-01-17T04:55:47.874Z,6.71
2023-01-17T04:58:14.518Z,6.71
2023-01-17T05:00:41.199Z,6.78
2023-01-17T05:03:07.988Z,6.81
2023-01-17T05:05:34.792Z,6.76
2023-01-17T05:08:01.544Z,6.71
2023-01-17T05:10:28.266Z,6.68
2023-01-17T05:12:59.420Z,6.68
2023-01-17T05:15:27.154Z,6.79
2023-01-17T05:17:54.341Z,6.69
2023-01-17T05:20:22.313Z,6.77
2023-01-17T05:22:56.327Z,6.83
2023-01-17T05:25:24.913Z,6.76
2023-01-17T05:27:52.063Z,6.74
2023-01-17T05:30:19.377Z,6.68
2023-01-17T05:32:49.725Z,6.67
2023-01-17T05:35:20.468Z,6.71
2023-01-17T05:37:49.394Z,6.73
2023-01-17T05:40:16.859Z,6.72
2023-01-17T05:42:51.041Z,6.77
2023-01-17T05:45:18.723Z,6.68
2023-01-17T05:47:50.589Z,6.64
2023-01-17T05:50:19.652Z,6.62
2023-01-17T05:52:54.022Z,6.56
2023-01-17T05:55:21.487Z,6.75
2023-01-17T05:57:48.312Z,6.61
2023-01-17T06:00:18.551Z,6.68
2023-01-17T06:02:45.655Z,6.59
2023-01-17T06:05:12.786Z,6.51
2023-01-17T06:07:39.549Z,6.66
2023-01-17T06:10:06.752Z,6.77
2023-01-17T06:12:33.438Z,6.54
2023-01-17T06:15:00.126Z,6.67
2023-01-17T06:17:26.921Z,6.68
2023-01-17T06:19:53.708Z,6.70
2023-01-17T06:22:20.575Z,6.46
2023-01-17T06:24:47.326Z,6.53
2023-01-17T06:27:13.982Z,6.56
2023-01-17T06:29:40.769Z,6.67
2023-01-17T06:32:07.440Z,6.63
2023-01-17T06:34:34.045Z,6.68
2023-01-17T06:37:00.709Z,6.67
2023-01-17T06:39:30.474Z,6.60
2023-01-17T06:41:57.226Z,6.62
2023-01-17T06:44:23.870Z,6.63
2023-01-17T06:46:50.521Z,6.67
2023-01-17T06:49:17.189Z,6.46
2023-01-17T06:51:44.019Z,6.69
2023-01-17T06:54:11.276Z,6.62
2023-01-17T06:56:38.033Z,6.72
2023-01-17T06:59:05.381Z,6.63
2023-01-17T07:01:32.333Z,6.64
2023-01-17T07:03:59.187Z,6.54
2023-01-17T07:06:28.860Z,6.37
2023-01-17T07:08:56.599Z,6.49
2023-01-17T07:11:23.884Z,6.49
2023-01-17T07:13:50.640Z,6.39
2023-01-17T07:16:17.402Z,6.54
2023-01-17T07:18:44.289Z,6.38
2023-01-17T07:21:15.311Z,6.47
2023-01-17T07:23:42.023Z,6.46
2023-01-17T07:26:08.753Z,6.38
2023-01-17T07:28:35.467Z,6.31
2023-01-17T07:31:07.139Z,6.37
2023-01-17T07:33:33.999Z,6.36
2023-01-17T07:36:06.353Z,6.26
2023-01-17T07:38:33.283Z,6.29
2023-01-17T07:41:00.560Z,6.28
2023-01-17T07:43:27.395Z,6.28
2023-01-17T07:45:53.997Z,6.27
2023-01-17T07:48:23.757Z,6.37
2023-01-17T07:50:58.116Z,6.36
2023-01-17T07:53:30.275Z,6.33
2023-01-17T07:56:01.678Z,6.45
2023-01-17T07:58:28.634Z,6.41
2023-01-17T08:00:55.596Z,6.54
2023-01-17T08:03:22.348Z,6.42
2023-01-17T08:05:56.305Z,6.37
2023-01-17T08:08:23.160Z,6.33
2023-01-17T08:10:51.645Z,6.06
2023-01-17T08:13:18.378Z,6.25
2023-01-17T08:15:48.373Z,6.33
2023-01-17T08:18:15.430Z,6.40
2023-01-17T08:20:44.400Z,6.43
2023-01-17T08:23:11.718Z,6.42
2023-01-17T08:25:39.379Z,6.51
2023-01-17T08:28:06.449Z,6.49
2023-01-17T08:30:33.324Z,6.52
2023-01-17T08:33:00.599Z,6.56
2023-01-17T08:35:28.072Z,6.54
2023-01-17T08:37:55.785Z,6.45
2023-01-17T08:40:22.971Z,6.64
2023-01-17T08:42:57.019Z,6.53
2023-01-17T08:45:23.993Z,6.57
2023-01-17T08:47:50.932Z,6.12
2023-01-17T08:50:20.955Z,6.32
2023-01-17T08:52:51.004Z,6.68
2023-01-17T08:55:18.283Z,6.71
2023-01-17T08:57:45.107Z,6.60
2023-01-17T09:00:12.206Z,6.71
2023-01-17T09:02:38.957Z,6.73
2023-01-17T09:05:07.414Z,6.68
2023-01-17T09:07:34.090Z,6.73
2023-01-17T09:10:00.919Z,6.51
2023-01-17T09:12:32.382Z,6.72
2023-01-17T09:15:03.310Z,6.60
2023-01-17T09:17:30.085Z,6.73
2023-01-17T09:19:56.885Z,6.77
2023-01-17T09:22:23.983Z,6.66
2023-01-17T09:24:50.598Z,6.40
2023-01-17T09:27:17.365Z,6.57
2023-01-17T09:29:44.018Z,6.70
2023-01-17T09:32:11.364Z,6.92
2023-01-17T09:34:38.076Z,6.85
2023-01-17T09:37:04.970Z,6.88
2023-01-17T09:39:31.570Z,6.86
2023-01-17T09:42:12.681Z,6.94
2023-01-17T09:44:43.189Z,6.90
2023-01-17T09:47:20.372Z,6.94
2023-01-17T09:49:50.373Z,7.14
2023-01-17T09:52:19.123Z,7.03
2023-01-17T09:54:48.444Z,6.90
2023-01-17T09:57:38.490Z,6.89
2023-01-17T10:00:31.369Z,6.94
2023-01-17T10:03:29.057Z,6.95
2023-01-17T10:06:03.947Z,6.91
2023-01-17T10:09:03.879Z,7.00
2023-01-17T10:11:54.597Z,6.81
2023-01-17T10:15:03.236Z,6.90
2023-01-17T10:17:44.655Z,6.94
2023-01-17T10:20:40.028Z,6.69
2023-01-17T10:23:22.215Z,6.67
2023-01-17T10:25:50.062Z,6.66
2023-01-17T10:28:23.971Z,6.61
2023-01-17T10:30:52.745Z,6.70
2023-01-17T10:33:22.120Z,6.71
2023-01-17T10:35:57.124Z,6.72
2023-01-17T10:38:31.391Z,6.84
2023-01-17T10:41:02.917Z,6.77
2023-01-17T10:43:39.510Z,6.74
2023-01-17T10:46:11.385Z,6.56
2023-01-17T10:48:46.442Z,6.36
2023-01-17T10:51:29.189Z,6.27
2023-01-17T10:54:02.058Z,6.38
2023-01-17T10:56:30.015Z,6.45
2023-01-17T10:59:26.481Z,6.46
2023-01-17T11:01:53.399Z,6.54
2023-01-17T11:04:22.753Z,6.63
2023-01-17T11:07:12.525Z,6.57
2023-01-17T11:09:45.460Z,6.54
2023-01-17T11:12:35.070Z,6.15
2023-01-17T11:15:10.895Z,6.23
2023-01-17T11:17:53.303Z,5.90
2023-01-17T11:20:38.747Z,6.02
2023-01-17T11:23:17.198Z,5.90
2023-01-17T11:26:04.878Z,5.94
2023-01-17T11:28:36.177Z,5.70
2023-01-17T11:31:08.107Z,6.04
2023-01-17T11:33:55.884Z,6.15
2023-01-17T11:36:28.295Z,6.15
2023-01-17T11:39:02.969Z,6.46
2023-01-17T11:41:38.236Z,6.68
2023-01-17T11:44:26.921Z,6.91
2023-01-17T11:47:23.173Z,6.92
2023-01-17T11:49:50.195Z,6.74
2023-01-17T11:52:34.454Z,6.76
2023-01-17T11:55:01.244Z,6.62
2023-01-17T11:57:30.170Z,6.74
2023-01-17T12:00:14.702Z,6.96
2023-01-17T12:02:50.795Z,7.01
2023-01-17T12:05:55.135Z,7.13
2023-01-17T12:09:10.013Z,6.94
2023-01-17T12:12:08.016Z,7.16
2023-01-17T12:14:53.623Z,7.27
2023-01-17T12:17:52.633Z,7.10
2023-01-17T12:20:30.463Z,7.06
2023-01-17T12:23:33.727Z,6.70
2023-01-17T12:26:27.694Z,6.99
2023-01-17T12:29:20.023Z,7.03
2023-01-17T12:32:05.458Z,7.01
2023-01-17T12:34:38.909Z,7.12
2023-01-17T12:37:21.098Z,6.98
2023-01-17T12:40:13.224Z,7.16
2023-01-17T12:42:44.707Z,7.22
2023-01-17T12:45:21.589Z,7.11
2023-01-17T12:47:54.676Z,7.15
2023-01-17T12:50:41.304Z,6.99
2023-01-17T12:53:28.131Z,7.22
2023-01-17T12:56:09.816Z,7.21
2023-01-17T12:58:41.925Z,7.41
2023-01-17T13:01:22.192Z,7.45
2023-01-17T13:04:17.975Z,7.68
2023-01-17T13:06:44.612Z,7.54
2023-01-17T13:09:14.220Z,7.48
2023-01-17T13:11:46.684Z,7.61
2023-01-17T13:14:13.349Z,7.62
2023-01-17T13:17:13.748Z,7.60
2023-01-17T13:19:48.892Z,7.44
2023-01-17T13:22:18.643Z,7.29
2023-01-17T13:25:13.105Z,7.34
2023-01-17T13:27:57.007Z,7.15
2023-01-17T13:30:51.725Z,7.19
2023-01-17T13:33:36.705Z,6.89
2023-01-17T13:36:44.356Z,6.81
2023-01-17T13:39:41.977Z,7.12
2023-01-17T13:42:13.939Z,7.30
2023-01-17T13:44:40.739Z,7.38
2023-01-17T13:47:27.782Z,7.37
2023-01-17T13:49:56.791Z,7.49
2023-01-17T13:52:26.492Z,7.46
2023-01-17T13:55:01.294Z,7.28
2023-01-17T13:57:32.931Z,7.32
2023-01-17T14:00:21.724Z,7.31
2023-01-17T14:02:52.922Z,7.06
2023-01-17T14:05:30.311Z,7.09
2023-01-17T14:08:03.037Z,7.12
2023-01-17T14:10:40.998Z,7.06
2023-01-17T14:13:39.356Z,6.95
2023-01-17T14:16:24.410Z,6.97
2023-01-17T14:18:52.702Z,7.03
2023-01-17T14:21:22.786Z,7.04
2023-01-17T14:24:06.146Z,7.11
2023-01-17T14:26:37.068Z,7.01
2023-01-17T14:29:41.502Z,7.03
2023-01-17T14:32:17.705Z,7.04
2023-01-17T14:34:49.745Z,7.05
2023-01-17T14:37:20.569Z,7.07
2023-01-17T14:39:49.411Z,6.95
2023-01-17T14:42:18.930Z,7.05
2023-01-17T14:44:47.474Z,7.05
2023-01-17T14:47:15.088Z,7.04
2023-01-17T14:49:44.322Z,6.93
2023-01-17T14:52:16.389Z,7.02
2023-01-17T14:54:49.170Z,7.00
2023-01-17T14:57:28.717Z,6.97
2023-01-17T15:00:35.131Z,6.95
2023-01-17T15:03:02.606Z,6.94
2023-01-17T15:05:30.355Z,6.92
2023-01-17T15:07:58.335Z,6.89
2023-01-17T15:10:32.705Z,6.74
2023-01-17T15:13:06.872Z,6.65
2023-01-17T15:15:38.531Z,6.63
2023-01-17T15:18:14.348Z,6.67
2023-01-17T15:20:50.955Z,6.59
2023-01-17T15:23:20.617Z,6.54
2023-01-17T15:25:48.916Z,6.40
2023-01-17T15:28:15.731Z,6.43
2023-01-17T15:31:01.345Z,6.27
2023-01-17T15:33:30.969Z,6.32
2023-01-17T15:36:02.180Z,6.11
2023-01-17T15:38:38.266Z,6.17
2023-01-17T15:41:09.544Z,6.17
2023-01-17T15:43:36.544Z,6.07
2023-01-17T15:46:05.056Z,6.08
2023-01-17T15:48:43.432Z,5.94
2023-01-17T15:51:12.580Z,6.04
2023-01-17T15:53:41.636Z,6.04
2023-01-17T15:56:31.950Z,5.94
2023-01-17T15:59:21.876Z,5.46
2023-01-17T16:01:56.082Z,5.54
2023-01-17T16:04:34.083Z,5.60
2023-01-17T16:07:22.117Z,5.59
2023-01-17T16:09:49.241Z,5.24
2023-01-17T16:12:17.102Z,5.36
2023-01-17T16:14:59.519Z,5.38
2023-01-17T16:17:31.880Z,5.29
2023-01-17T16:19:59.072Z,5.20
2023-01-17T16:22:27.055Z,5.16
2023-01-17T16:24:56.758Z,5.09
2023-01-17T16:27:23.579Z,5.05
2023-01-17T16:29:50.191Z,5.02
2023-01-17T16:32:16.907Z,4.98
2023-01-17T16:34:44.467Z,4.92
2023-01-17T16:37:11.424Z,4.83
2023-01-17T16:39:38.655Z,4.75
2023-01-17T16:42:05.377Z,4.71
2023-01-17T16:44:33.618Z,4.66
2023-01-17T16:47:01.385Z,4.58
2023-01-17T16:49:29.377Z,4.57
2023-01-17T16:51:56.021Z,4.45
2023-01-17T16:54:23.124Z,4.37
2023-01-17T16:56:49.990Z,4.32
2023-01-17T16:59:17.127Z,4.21
2023-01-17T17:01:45.632Z,4.21
2023-01-17T17:04:13.217Z,4.17
2023-01-17T17:06:40.029Z,4.14
2023-01-17T17:09:06.866Z,4.12
2023-01-17T17:11:33.730Z,4.06
2023-01-17T17:14:00.507Z,4.02
2023-01-17T17:16:30.120Z,3.91
2023-01-17T17:18:59.672Z,3.85
2023-01-17T17:21:28.881Z,3.71
2023-01-17T17:23:58.213Z,3.79
2023-01-17T17:26:29.095Z,3.85
2023-01-17T17:28:55.992Z,3.87
2023-01-17T17:31:22.921Z,3.83
2023-01-17T17:33:49.902Z,3.78
2023-01-17T17:36:18.296Z,3.72
2023-01-17T17:38:50.985Z,3.71
2023-01-17T17:41:20.199Z,3.64
2023-01-17T17:43:47.115Z,3.63
2023-01-17T17:46:14.461Z,3.59
2023-01-17T17:48:41.254Z,3.55
2023-01-17T17:51:08.034Z,3.51
2023-01-17T17:53:35.755Z,3.50
2023-01-17T17:56:04.524Z,3.46
2023-01-17T17:58:33.022Z,3.42
2023-01-17T18:01:04.749Z,3.46
2023-01-17T18:03:31.554Z,3.44
2023-01-17T18:06:06.966Z,3.41
2023-01-17T18:08:34.800Z,3.38
2023-01-17T18:11:03.472Z,3.28
2023-01-17T18:13:31.255Z,3.30
2023-01-17T18:16:07.856Z,3.28
2023-01-17T18:18:40.066Z,3.18
2023-01-17T18:21:15.573Z,3.23
2023-01-17T18:23:45.195Z,3.17
2023-01-17T18:26:35.322Z,3.15
2023-01-17T18:29:05.752Z,3.13
2023-01-17T18:31:32.852Z,3.10
2023-01-17T18:34:03.295Z,3.09
2023-01-17T18:36:30.140Z,3.08
2023-01-17T18:38:58.034Z,3.07
2023-01-17T18:41:27.081Z,3.03
2023-01-17T18:43:56.152Z,2.96
2023-01-17T18:46:23.455Z,2.93
2023-01-17T18:48:55.782Z,2.92
2023-01-17T18:51:22.483Z,2.87
2023-01-17T18:53:49.358Z,2.89
2023-01-17T18:56:18.666Z,2.78
2023-01-17T18:58:47.278Z,2.84
2023-01-17T19:01:23.107Z,2.81
2023-01-17T19:03:51.383Z,2.74
2023-01-17T19:06:21.077Z,2.74
2023-01-17T19:08:49.508Z,2.72
2023-01-17T19:11:16.150Z,2.73
2023-01-17T19:13:42.868Z,2.75
2023-01-17T19:16:20.043Z,2.68
2023-01-17T19:18:47.597Z,2.67
2023-01-17T19:21:16.436Z,2.57
2023-01-17T19:23:43.761Z,2.52
2023-01-17T19:26:11.796Z,2.52
2023-01-17T19:28:40.583Z,2.50
2023-01-17T19:31:09.323Z,2.54
2023-01-17T19:33:40.747Z,2.45
2023-01-17T19:36:09.963Z,2.48
2023-01-17T19:38:37.402Z,2.48
2023-01-17T19:41:13.377Z,2.44
2023-01-17T19:43:42.109Z,2.45
2023-01-17T19:46:11.558Z,2.37
2023-01-17T19:48:39.246Z,2.43
2023-01-17T19:51:14.056Z,2.41
2023-01-17T19:53:41.600Z,2.42
2023-01-17T19:56:10.857Z,2.37
2023-01-17T19:58:38.102Z,2.33
2023-01-17T20:01:06.701Z,2.32
2023-01-17T20:03:33.467Z,2.30
2023-01-17T20:06:00.161Z,2.10
2023-01-17T20:08:26.839Z,2.13
2023-01-17T20:10:53.598Z,2.18
2023-01-17T20:13:20.801Z,2.18
2023-01-17T20:15:47.899Z,2.08
2023-01-17T20:18:17.885Z,2.20
2023-01-17T20:20:56.568Z,2.20
2023-01-17T20:23:23.861Z,2.18
2023-01-17T20:25:59.217Z,2.14
2023-01-17T20:28:27.330Z,2.14
2023-01-17T20:30:55.323Z,2.14
2023-01-17T20:33:23.391Z,2.12
2023-01-17T20:36:04.893Z,2.12
2023-01-17T20:38:45.249Z,2.10
2023-01-17T20:41:31.659Z,2.04
2023-01-17T20:44:00.119Z,1.99
2023-01-17T20:46:29.596Z,2.00
2023-01-17T20:48:58.132Z,2.02
2023-01-17T20:51:27.135Z,2.07
2023-01-17T20:53:59.821Z,2.05
2023-01-17T20:56:27.197Z,1.95
2023-01-17T20:58:54.741Z,2.02
2023-01-17T21:01:23.344Z,1.98
2023-01-17T21:03:53.280Z,1.93
2023-01-17T21:06:21.713Z,1.84
2023-01-17T21:08:48.857Z,1.79
2023-01-17T21:11:19.059Z,1.84
2023-01-17T21:13:45.847Z,1.86
2023-01-17T21:16:14.380Z,1.87
2023-01-17T21:18:41.522Z,1.86
2023-01-17T21:21:14.127Z,1.83
2023-01-17T21:23:41.978Z,1.81
2023-01-17T21:26:12.216Z,1.77
2023-01-17T21:28:41.077Z,1.72
2023-01-17T21:31:26.341Z,1.76
2023-01-17T21:34:04.094Z,1.67
2023-01-17T21:36:35.445Z,1.71
2023-01-17T21:39:04.926Z,1.61
2023-01-17T21:41:36.591Z,1.59
2023-01-17T21:44:10.885Z,1.62
2023-01-17T21:46:39.155Z,1.62
2023-01-17T21:49:07.115Z,1.67
2023-01-17T21:51:52.691Z,1.52
2023-01-17T21:54:44.258Z,1.66
2023-01-17T21:57:31.363Z,1.57
2023-01-17T21:59:59.087Z,1.61
2023-01-17T22:02:26.235Z,1.50
2023-01-17T22:04:54.743Z,1.64
2023-01-17T22:07:21.551Z,1.57
2023-01-17T22:09:48.359Z,1.66
2023-01-17T22:12:15.164Z,1.69
2023-01-17T22:14:41.937Z,1.63
2023-01-17T22:17:08.912Z,1.52
2023-01-17T22:19:35.578Z,1.44
2023-01-17T22:22:02.677Z,1.65
2023-01-17T22:24:29.520Z,1.63
2023-01-17T22:26:56.283Z,1.64
2023-01-17T22:29:23.025Z,1.50
2023-01-17T22:31:49.670Z,1.50
2023-01-17T22:34:16.435Z,1.48
2023-01-17T22:36:43.162Z,1.51
2023-01-17T22:39:10.330Z,1.56
2023-01-17T22:41:38.168Z,1.58
2023-01-17T22:44:08.618Z,1.52
2023-01-17T22:46:39.369Z,1.48
2023-01-17T22:49:08.425Z,1.53
2023-01-17T22:51:35.562Z,1.52
2023-01-17T22:54:02.557Z,1.50
2023-01-17T22:56:32.257Z,1.46
2023-01-17T22:59:00.893Z,1.50
2023-01-17T23:01:29.785Z,1.46
2023-01-17T23:03:59.146Z,1.42
2023-01-17T23:06:37.353Z,1.34
2023-01-17T23:09:10.622Z,1.33
2023-01-17T23:11:45.091Z,1.45
2023-01-17T23:14:17.538Z,1.34
2023-01-17T23:17:06.510Z,1.23
2023-01-17T23:19:43.746Z,0.96
2023-01-17T23:22:16.890Z,1.14
2023-01-17T23:24:52.063Z,1.21
2023-01-17T23:27:52.823Z,1.25
2023-01-17T23:30:30.314Z,1.19
2023-01-17T23:33:00.905Z,1.18
2023-01-17T23:35:29.779Z,1.19
2023-01-17T23:38:15.621Z,1.17
2023-01-17T23:40:42.634Z,1.16
2023-01-17T23:43:25.532Z,1.16
2023-01-17T23:45:53.345Z,1.18
2023-01-17T23:48:21.294Z,1.19
2023-01-17T23:50:48.678Z,1.18
2023-01-17T23:53:23.282Z,1.16
2023-01-17T23:55:51.856Z,1.18
2023-01-17T23:58:19.782Z,1.18
